Time;durP1;ratioP1;P1;durP2;ratioP2;P2;SDS_P1;SDS_P2;PMS_P1;PMS_P2;Temp;Humidity;BMP_temperature;BMP_pressure;BME280_temperature;BME280_humidity;BME280_pressure;Samples;Min_cycle;Max_cycle;Signal;HPM_P1;HPM_P2
2022/09/27 00:00:05;;;;;;;2.20;2.00;;;;;;;-142.65;99.82;50172.78;5094154;28;20210;-75
2022/09/27 00:02:37;;;;;;;5.10;1.97;;;;;;;-142.65;99.83;50170.78;5094244;28;20352;-75
2022/09/27 00:05:04;;;;;;;2.30;2.17;;;;;;;-142.65;100.00;50170.78;5094149;28;20184;-75
2022/09/27 00:07:30;;;;;;;1.67;1.57;;;;;;;-142.65;100.00;50178.75;5094315;28;20208;-75
2022/09/27 00:09:57;;;;;;;5.13;2.47;;;;;;;-142.65;100.00;50170.78;5093982;28;20209;-75
2022/09/27 00:12:23;;;;;;;4.67;2.23;;;;;;;-142.65;99.97;50168.78;5093895;28;20197;-75
2022/09/27 00:14:50;;;;;;;2.90;2.70;;;;;;;-142.65;100.00;50172.78;5094208;28;20180;-75
2022/09/27 00:17:16;;;;;;;8.67;2.10;;;;;;;-142.65;100.00;50174.75;5094227;28;20189;-76
2022/09/27 00:19:42;;;;;;;7.23;2.60;;;;;;;;;;5093918;28;20205;-75
2022/09/27 00:22:08;;;;;;;4.50;2.73;;;;;;;;;;5094104;28;20204;-76
2022/09/27 00:24:35;;;;;;;1.70;1.70;;;;;;;-142.65;99.98;50170.78;5093825;28;20555;-76
2022/09/27 00:27:01;;;;;;;2.80;2.60;;;;;;;;;;5093733;28;20194;-75
2022/09/27 00:29:27;;;;;;;4.27;2.77;;;;;;;;;;5093589;28;20232;-75
2022/09/27 00:31:54;;;;;;;3.43;3.30;;;;;;;-142.65;99.97;50168.78;5093710;28;20204;-75
2022/09/27 00:34:23;;;;;;;3.83;2.90;;;;;;;-142.65;99.98;50168.78;5092669;28;20552;-75
2022/09/27 00:36:50;;;;;;;3.50;3.30;;;;;;;;;;5092595;28;20208;-75
2022/09/27 00:39:17;;;;;;;2.90;2.80;;;;;;;-142.65;100.00;50174.75;5093806;28;20220;-75
2022/09/27 00:41:44;;;;;;;4.30;3.50;;;;;;;-142.65;100.00;50172.78;5093560;28;20241;-75
2022/09/27 00:44:26;;;;;;;7.80;3.73;;;;;;;;;;5075390;28;20218;-75
2022/09/27 00:47:10;;;;;;;3.50;3.30;;;;;;;-142.65;100.00;50170.78;5075469;28;20236;-75
2022/09/27 00:49:42;;;;;;;2.87;2.73;;;;;;;-142.65;100.00;50174.75;5075526;28;20564;-75
2022/09/27 00:52:30;;;;;;;4.70;4.00;;;;;;;-142.65;100.00;50174.75;5093389;28;20180;-75
2022/09/27 00:55:05;;;;;;;5.07;3.30;;;;;;;-142.65;100.00;50174.75;5092201;28;20212;-75
2022/09/27 00:57:32;;;;;;;10.40;4.07;;;;;;;;;;5093681;28;20173;-75
2022/09/27 01:00:00;;;;;;;3.60;3.30;;;;;;;;;;5075259;28;20219;-75
2022/09/27 01:02:27;;;;;;;3.57;3.27;;;;;;;-142.65;100.00;50178.75;5094178;28;20188;-75
2022/09/27 01:04:54;;;;;;;4.83;3.60;;;;;;;-142.65;100.00;50174.75;5092024;28;20220;-75
2022/09/27 01:07:21;;;;;;;2.93;2.37;;;;;;;-142.65;100.00;50168.78;5093351;28;20655;-75
2022/09/27 01:09:48;;;;;;;3.90;2.60;;;;;;;;;;5075093;28;20221;-75
2022/09/27 01:12:14;;;;;;;10.33;3.10;;;;;;;;;;5091939;28;20297;-76
2022/09/27 01:15:07;;;;;;;7.73;3.20;;;;;;;-142.65;100.00;50168.78;5093217;28;20185;-76
2022/09/27 01:17:39;;;;;;;8.40;3.37;;;;;;;;;;5093241;28;20268;-76
2022/09/27 01:20:36;;;;;;;6.60;4.17;;;;;;;-142.65;100.00;50176.75;5091873;28;20225;-75
2022/09/27 01:23:32;;;;;;;4.33;3.73;;;;;;;-142.65;100.00;50168.78;5093401;28;20185;-75
2022/09/27 01:26:08;;;;;;;4.20;3.77;;;;;;;-142.65;100.00;50170.78;5075885;28;20210;-75
2022/09/27 01:29:10;;;;;;;5.00;3.73;;;;;;;-142.65;100.00;50170.78;5075146;28;20758;-75
2022/09/27 01:31:50;;;;;;;5.73;4.67;;;;;;;-142.65;100.00;50170.78;5075018;28;20572;-75
2022/09/27 01:34:26;;;;;;;5.20;4.80;;;;;;;;;;5075268;28;20689;-75
2022/09/27 01:37:25;;;;;;;13.20;5.10;;;;;;;-142.65;100.00;50170.78;5093057;28;20274;-75
2022/09/27 01:40:27;;;;;;;5.53;5.23;;;;;;;-142.65;100.00;50174.75;5059757;28;20291;-75
2022/09/27 01:43:31;;;;;;;8.37;5.67;;;;;;;-142.65;100.00;50168.78;5092893;28;20223;-75
2022/09/27 01:46:07;;;;;;;7.13;6.50;;;;;;;;;;5075158;28;20587;-75
2022/09/27 01:49:15;;;;;;;6.03;5.80;;;;;;;-142.65;100.00;50178.75;5092586;28;20225;-75
2022/09/27 01:51:59;;;;;;;6.43;6.13;;;;;;;-142.65;100.00;50170.78;5091667;28;20194;-75
2022/09/27 01:54:36;;;;;;;7.33;6.63;;;;;;;-142.65;100.00;50172.78;5092196;28;20276;-75
2022/09/27 01:57:37;;;;;;;5.70;5.40;;;;;;;-142.65;100.00;50170.78;5070872;28;20694;-75
2022/09/27 02:00:09;;;;;;;10.73;6.87;;;;;;;-142.65;100.00;50170.78;5092504;28;20219;-76
2022/09/27 02:02:47;;;;;;;5.90;5.50;;;;;;;-142.65;100.00;50174.75;5097149;28;20180;-75
2022/09/27 02:05:33;;;;;;;6.67;6.17;;;;;;;-142.65;100.00;50164.81;5096762;28;20269;-75
2022/09/27 02:08:25;;;;;;;5.93;5.63;;;;;;;-142.65;100.00;50170.78;5078585;28;20679;-74
2022/09/27 02:10:57;;;;;;;9.87;5.77;;;;;;;-142.65;99.94;50164.81;5095412;28;20193;-75
2022/09/27 02:13:30;;;;;;;5.37;5.07;;;;;;;;;;5078071;28;20296;-75
2022/09/27 02:16:17;;;;;;;6.57;5.43;;;;;;;;;;5095282;28;20197;-75
2022/09/27 02:19:04;;;;;;;6.67;6.07;;;;;;;-142.65;100.00;50170.78;5096420;28;20220;-74
2022/09/27 02:21:42;;;;;;;6.40;5.90;;;;;;;-142.65;99.96;50170.78;5078256;28;20200;-75
2022/09/27 02:24:10;;;;;;;6.27;5.70;;;;;;;;;;5077959;28;20232;-75
2022/09/27 02:26:42;;;;;;;7.57;6.10;;;;;;;-142.65;99.92;50168.78;5094802;28;20570;-75
2022/09/27 02:29:14;;;;;;;5.73;5.63;;;;;;;-142.65;100.00;50178.75;5096158;28;20236;-75
2022/09/27 02:31:48;;;;;;;15.27;5.63;;;;;;;-142.65;99.77;50168.78;5077855;28;20678;-75
2022/09/27 02:34:22;;;;;;;8.47;5.57;;;;;;;-142.65;99.85;50170.78;5078324;28;20191;-75
2022/09/27 02:36:52;;;;;;;6.10;5.57;;;;;;;-142.65;99.82;50170.78;5078045;28;20289;-75
2022/09/27 02:39:19;;;;;;;6.20;6.03;;;;;;;-142.65;99.98;50168.78;5094485;28;20300;-74
2022/09/27 02:41:48;;;;;;;6.33;5.83;;;;;;;;;;5077633;28;20571;-74
2022/09/27 02:44:16;;;;;;;6.90;5.37;;;;;;;-142.65;99.98;50168.78;5077587;28;20205;-74
2022/09/27 02:47:01;;;;;;;5.30;5.00;;;;;;;-142.65;99.98;50162.81;5077562;28;20197;-74
2022/09/27 02:49:37;;;;;;;5.60;5.27;;;;;;;-142.65;100.00;50172.78;5077587;28;20275;-74
2022/09/27 02:52:37;;;;;;;5.37;5.17;;;;;;;;;;5095865;28;20215;-74
2022/09/27 02:55:29;;;;;;;8.50;7.97;;;;;;;-142.65;100.00;50170.78;5077365;28;20200;-74
2022/09/27 02:58:15;;;;;;;8.40;7.10;;;;;;;-142.65;100.00;50174.75;5077556;28;20540;-74
2022/09/27 03:01:21;;;;;;;7.30;6.77;;;;;;;;;;5075763;28;20286;-74
2022/09/27 03:04:22;;;;;;;6.63;5.93;;;;;;;-142.65;100.00;50178.75;5077191;28;20216;-74
2022/09/27 03:06:52;;;;;;;8.97;5.27;;;;;;;-142.65;100.00;50170.78;5095585;28;20223;-74
2022/09/27 03:09:27;;;;;;;5.03;4.57;;;;;;;;;;5095357;28;20242;-74
2022/09/27 03:11:54;;;;;;;4.90;4.80;;;;;;;;;;5075923;28;20203;-74
2022/09/27 03:14:21;;;;;;;5.17;5.03;;;;;;;;;;5095705;28;20240;-75
2022/09/27 03:17:08;;;;;;;5.07;4.70;;;;;;;-142.65;99.76;50170.78;5077777;28;20565;-74
2022/09/27 03:19:53;;;;;;;5.33;4.83;;;;;;;-142.65;99.64;50170.78;5095572;28;20318;-74
2022/09/27 03:22:39;;;;;;;4.13;4.07;;;;;;;-142.65;99.63;50174.75;5095598;28;20261;-74
2022/09/27 03:25:06;;;;;;;3.83;3.70;;;;;;;;;;5076794;28;20197;-74
2022/09/27 03:27:32;;;;;;;6.87;4.30;;;;;;;-142.65;98.80;50170.78;5094878;28;20181;-74
2022/09/27 03:29:58;;;;;;;6.37;3.87;;;;;;;-142.65;98.82;50168.78;5077133;28;20226;-74
2022/09/27 03:32:26;;;;;;;4.73;4.43;;;;;;;-142.65;98.78;50174.75;5076939;28;20220;-74
2022/09/27 03:35:04;;;;;;;4.17;4.00;;;;;;;-142.65;98.77;50168.78;5095315;28;20178;-74
2022/09/27 03:37:30;;;;;;;4.47;4.07;;;;;;;-142.65;98.69;50164.81;5094653;28;20196;-74
2022/09/27 03:39:57;;;;;;;4.93;4.63;;;;;;;-142.65;98.80;50170.78;5076639;28;20208;-74
2022/09/27 03:42:23;;;;;;;4.97;4.60;;;;;;;-142.65;98.89;50178.75;5077285;28;20223;-74
2022/09/27 03:44:51;;;;;;;9.73;3.87;;;;;;;;;;5076934;28;20190;-74
2022/09/27 03:47:18;;;;;;;10.87;4.27;;;;;;;-142.65;99.40;50164.81;5076302;28;20754;-74
2022/09/27 03:49:45;;;;;;;4.80;3.97;;;;;;;;;;5077188;28;20231;-74
2022/09/27 03:52:11;;;;;;;9.50;4.47;;;;;;;-142.65;99.80;50168.78;5076148;28;20280;-74
2022/09/27 03:54:38;;;;;;;4.00;3.90;;;;;;;;;;5094611;28;20197;-74
2022/09/27 03:57:05;;;;;;;4.57;4.37;;;;;;;-142.65;100.00;50174.75;5076173;28;20227;-74
2022/09/27 03:59:32;;;;;;;6.73;4.70;;;;;;;-142.65;100.00;50172.78;5076029;28;20213;-73
2022/09/27 04:02:27;;;;;;;4.63;4.23;;;;;;;;;;5085074;28;20202;-74
2022/09/27 04:05:32;;;;;;;4.33;4.03;;;;;;;-142.65;99.94;50180.75;5094212;28;20206;-74
2022/09/27 04:08:05;;;;;;;4.40;4.17;;;;;;;-142.65;99.76;50162.81;5076233;28;20283;-74
2022/09/27 04:10:32;;;;;;;7.93;5.07;;;;;;;-142.65;99.78;50170.78;5075750;28;20220;-74
2022/09/27 04:12:58;;;;;;;4.67;4.57;;;;;;;-142.65;99.77;50170.78;5075874;28;20243;-73
2022/09/27 04:15:29;;;;;;;5.73;5.27;;;;;;;-142.65;99.66;50170.78;5076335;28;20195;-73
2022/09/27 04:18:21;;;;;;;5.80;5.37;;;;;;;-142.65;99.52;50172.78;5093731;28;20205;-74
2022/09/27 04:21:06;;;;;;;5.03;4.70;;;;;;;-142.65;99.33;50178.75;5094206;28;20179;-74
2022/09/27 04:23:35;;;;;;;3.93;3.73;;;;;;;-142.65;99.36;50164.81;5075717;28;20204;-74
2022/09/27 04:26:02;;;;;;;4.60;4.33;;;;;;;-142.65;99.34;50174.75;5075668;28;20204;-74
2022/09/27 04:28:47;;;;;;;5.00;4.67;;;;;;;-142.65;99.29;50164.81;5094057;28;20237;-74
2022/09/27 04:31:19;;;;;;;4.47;4.37;;;;;;;-142.65;99.35;50174.75;5075663;28;20717;-74
2022/09/27 04:34:05;;;;;;;4.00;3.80;;;;;;;;;;5075740;28;20284;-74
2022/09/27 04:36:34;;;;;;;5.10;4.40;;;;;;;-142.65;99.58;50170.78;5075532;28;20632;-74
2022/09/27 04:39:13;;;;;;;4.33;4.10;;;;;;;-142.65;99.37;50180.75;5075675;28;20296;-73
2022/09/27 04:41:43;;;;;;;3.73;3.50;;;;;;;-142.65;99.10;50174.75;5093569;28;20182;-74
2022/09/27 04:44:10;;;;;;;13.20;4.07;;;;;;;;;;5093530;28;20187;-74
2022/09/27 04:46:39;;;;;;;3.30;3.30;;;;;;;-142.65;99.07;50176.75;5092208;28;20654;-74
2022/09/27 04:49:05;;;;;;;4.20;4.10;;;;;;;-142.65;99.16;50168.78;5075199;28;20223;-74
2022/09/27 04:51:34;;;;;;;4.50;4.10;;;;;;;-142.65;99.05;50174.75;5075846;28;20236;-74
2022/09/27 04:54:00;;;;;;;4.37;4.20;;;;;;;-142.65;99.09;50178.75;5092261;28;20241;-74
2022/09/27 04:56:30;;;;;;;4.47;4.10;;;;;;;-142.65;99.07;50168.78;5075749;28;20258;-73
2022/09/27 04:58:57;;;;;;;4.17;2.83;;;;;;;-142.65;99.31;50178.75;5075918;28;20217;-74
2022/09/27 05:01:23;;;;;;;3.50;3.30;;;;;;;-142.65;98.99;50164.81;5075428;28;20192;-73
2022/09/27 05:04:09;;;;;;;3.13;2.93;;;;;;;-142.65;99.09;50172.78;5093899;28;20186;-73
2022/09/27 05:06:38;;;;;;;4.07;3.77;;;;;;;;;;5075219;28;20197;-73
2022/09/27 05:09:17;;;;;;;3.67;3.37;;;;;;;-142.65;98.99;50168.78;5075047;28;20222;-73
2022/09/27 05:11:48;;;;;;;4.03;3.77;;;;;;;-142.65;98.69;50172.78;5074977;28;20186;-73
2022/09/27 05:14:15;;;;;;;3.97;3.70;;;;;;;-142.65;98.89;50168.78;5093235;28;20218;-73
2022/09/27 05:17:06;;;;;;;4.03;3.67;;;;;;;-142.65;98.76;50170.78;5084890;28;20231;-74
2022/09/27 05:19:51;;;;;;;7.60;3.70;;;;;;;-142.65;98.86;50168.78;5093434;28;20295;-73
2022/09/27 05:22:40;;;;;;;7.23;3.60;;;;;;;;;;5092322;28;20204;-74
2022/09/27 05:25:07;;;;;;;5.90;4.23;;;;;;;-142.65;98.88;50174.75;5093443;28;20657;-73
2022/09/27 05:27:34;;;;;;;4.17;3.40;;;;;;;-142.65;98.98;50168.78;5075202;28;20193;-73
2022/09/27 05:30:00;;;;;;;6.57;4.13;;;;;;;-142.65;99.02;50168.78;5093687;28;20215;-73
2022/09/27 05:32:34;;;;;;;5.17;4.07;;;;;;;-142.65;98.88;50168.78;5075751;28;20191;-73
2022/09/27 05:35:21;;;;;;;5.07;3.97;;;;;;;;;;5094392;28;20219;-73
2022/09/27 05:37:55;;;;;;;11.13;4.73;;;;;;;-142.65;98.59;50170.78;5078879;28;20182;-74
2022/09/27 05:40:24;;;;;;;5.33;5.10;;;;;;;-142.65;98.57;50170.78;5078745;28;20218;-73
2022/09/27 05:43:08;;;;;;;8.83;4.03;;;;;;;-142.65;98.36;50170.78;5095900;28;20720;-73
2022/09/27 05:45:35;;;;;;;4.13;3.87;;;;;;;-142.65;98.28;50170.78;5079684;28;20240;-73
2022/09/27 05:48:04;;;;;;;5.20;4.37;;;;;;;;;;5078594;28;20621;-74
2022/09/27 05:50:35;;;;;;;4.73;4.30;;;;;;;-142.65;98.30;50172.78;5079367;28;20214;-74
2022/09/27 05:53:01;;;;;;;11.93;5.30;;;;;;;-142.65;97.98;50164.81;5078534;28;20648;-74
2022/09/27 05:55:28;;;;;;;4.50;4.23;;;;;;;-142.65;97.88;50162.81;5079329;28;20204;-74
2022/09/27 05:57:56;;;;;;;5.20;4.90;;;;;;;;;;5095291;28;20650;-74
2022/09/27 06:00:28;;;;;;;4.73;4.63;;;;;;;-142.65;97.09;50172.78;5078874;28;20549;-74
2022/09/27 06:02:57;;;;;;;5.30;4.80;;;;;;;-142.65;97.10;50172.78;5078358;28;20211;-74
2022/09/27 06:05:43;;;;;;;5.40;4.80;;;;;;;-142.65;96.75;50178.75;5097053;28;20190;-74
2022/09/27 06:08:45;;;;;;;7.30;4.60;;;;;;;-142.65;96.62;50168.78;5085622;28;20294;-73
2022/09/27 06:11:15;;;;;;;5.87;5.33;;;;;;;;;;5078462;28;20682;-73
2022/09/27 06:13:42;;;;;;;5.93;5.63;;;;;;;-142.65;96.65;50168.78;5078246;28;20250;-73
2022/09/27 06:16:10;;;;;;;13.43;7.43;;;;;;;-142.65;96.49;50170.78;5078080;28;20232;-74
2022/09/27 06:18:39;;;;;;;6.43;5.30;;;;;;;-142.65;96.29;50164.81;5078842;28;20217;-74
2022/09/27 06:21:05;;;;;;;7.23;4.87;;;;;;;-142.65;96.39;50170.78;5096506;28;20201;-74
2022/09/27 06:23:33;;;;;;;9.30;5.50;;;;;;;-142.65;96.49;50170.78;5078751;28;20525;-74
2022/09/27 06:26:08;;;;;;;4.40;4.30;;;;;;;-142.65;96.43;50170.78;5078185;28;20193;-74
2022/09/27 06:29:01;;;;;;;5.47;4.90;;;;;;;-142.65;96.48;50176.75;5094660;28;20214;-74
2022/09/27 06:31:28;;;;;;;5.77;4.10;;;;;;;-142.65;96.67;50170.78;5078164;28;20190;-74
2022/09/27 06:34:15;;;;;;;4.20;3.83;;;;;;;-142.65;96.04;50172.78;5081659;28;20201;-74
2022/09/27 06:36:42;;;;;;;3.67;3.47;;;;;;;;;;5077982;28;20651;-74
2022/09/27 06:39:10;;;;;;;7.23;3.13;;;;;;;;;;5077931;28;20206;-74
2022/09/27 06:41:56;;;;;;;7.73;2.83;;;;;;;-142.65;95.84;50170.78;5077659;28;20193;-74
2022/09/27 06:44:43;;;;;;;9.90;3.43;;;;;;;-142.65;95.70;50168.78;5081655;28;20597;-74
2022/09/27 06:47:37;;;;;;;5.33;3.43;;;;;;;-142.65;95.90;50176.75;5095813;28;20178;-74
2022/09/27 06:50:16;;;;;;;3.10;2.67;;;;;;;-142.65;95.88;50170.78;5077370;28;20310;-74
2022/09/27 06:52:47;;;;;;;3.30;3.00;;;;;;;;;;5078306;28;20221;-74
2022/09/27 06:55:14;;;;;;;5.77;2.50;;;;;;;-142.65;95.41;50168.78;5077343;28;20223;-74
2022/09/27 07:00:27;;;;;;;5.40;2.33;;;;;;;-142.65;94.89;50164.81;5077261;28;20205;-74
2022/09/27 07:03:14;;;;;;;2.83;2.13;;;;;;;-142.65;94.59;50168.78;5095943;28;20184;-74
2022/09/27 07:06:19;;;;;;;2.03;1.93;;;;;;;-142.65;94.59;50170.78;5094088;28;20208;-74
2022/09/27 07:08:53;;;;;;;2.00;2.00;;;;;;;-142.65;94.21;50178.75;5077344;28;20312;-73
2022/09/27 07:11:22;;;;;;;3.73;2.20;;;;;;;-142.65;94.52;50170.78;5077140;28;20658;-74
2022/09/27 07:13:49;;;;;;;2.17;2.17;;;;;;;-142.65;93.40;50164.81;5077171;28;20220;-74
2022/09/27 07:16:16;;;;;;;3.10;2.57;;;;;;;-142.65;93.24;50168.78;5093849;28;20215;-74
2022/09/27 07:18:42;;;;;;;11.87;2.53;;;;;;;-142.65;93.27;50172.78;5095265;28;20297;-73
2022/09/27 07:21:09;;;;;;;7.63;2.63;;;;;;;-142.65;93.42;50174.75;5094259;28;20202;-73
2022/09/27 07:23:36;;;;;;;8.93;2.83;;;;;;;-142.65;93.54;50164.81;5076820;28;20281;-73
2022/09/27 07:26:05;;;;;;;5.00;3.30;;;;;;;-142.65;93.83;50170.78;5077307;28;20199;-73
2022/09/27 07:28:32;;;;;;;4.60;3.90;;;;;;;-142.65;93.24;50170.78;5076579;28;20237;-74
2022/09/27 07:31:01;;;;;;;4.90;4.53;;;;;;;-142.65;93.14;50172.78;5076557;28;20218;-74
2022/09/27 07:33:30;;;;;;;4.93;4.47;;;;;;;-142.65;92.96;50178.75;5076596;28;20288;-74
2022/09/27 07:35:59;;;;;;;6.10;5.13;;;;;;;-142.65;93.16;50176.75;5093378;28;20186;-74
2022/09/27 07:38:25;;;;;;;4.63;4.20;;;;;;;-142.65;92.69;50170.78;5076403;28;20736;-74
2022/09/27 07:40:52;;;;;;;5.60;4.37;;;;;;;-142.65;92.54;50174.75;5093600;28;20192;-73
2022/09/27 07:43:19;;;;;;;4.17;3.97;;;;;;;-142.65;92.14;50168.78;5093577;28;20588;-73
2022/09/27 07:45:46;;;;;;;3.77;3.30;;;;;;;;;;5076401;28;20192;-73
2022/09/27 07:48:33;;;;;;;4.57;4.07;;;;;;;;;;5095010;28;20229;-74
2022/09/27 07:51:13;;;;;;;6.23;2.97;;;;;;;-142.65;91.88;50172.78;5076237;28;20380;-74
2022/09/27 07:53:45;;;;;;;2.87;2.77;;;;;;;-142.65;92.35;50168.78;5076163;28;20186;-74
2022/09/27 07:56:35;;;;;;;3.37;3.17;;;;;;;-142.65;91.94;50162.81;5076191;28;20182;-74
2022/09/27 07:59:03;;;;;;;2.77;2.57;;;;;;;;;;5075543;28;20239;-74
2022/09/27 08:01:30;;;;;;;2.63;2.43;;;;;;;;;;5076057;28;20212;-73
2022/09/27 08:03:57;;;;;;;4.50;2.43;;;;;;;;;;5094538;28;20158;-73
2022/09/27 08:06:24;;;;;;;3.40;3.20;;;;;;;;;;5094708;28;20178;-73
2022/09/27 08:08:51;;;;;;;2.77;2.77;;;;;;;-142.65;91.46;50174.75;5075898;28;20305;-74
2022/09/27 08:11:18;;;;;;;6.43;1.97;;;;;;;-142.65;91.32;50174.75;5093932;28;20236;-73
2022/09/27 08:13:48;;;;;;;1.83;1.73;;;;;;;-142.65;91.56;50168.78;5092845;28;20251;-73
2022/09/27 08:16:15;;;;;;;4.23;1.83;;;;;;;;;;5076570;28;20224;-73
2022/09/27 08:19:14;;;;;;;2.77;2.07;;;;;;;-142.65;90.76;50174.75;5081227;28;20300;-73
2022/09/27 08:22:00;;;;;;;8.80;1.73;;;;;;;-142.65;91.67;50172.78;5094013;28;20262;-74
2022/09/27 08:24:32;;;;;;;1.97;1.97;;;;;;;-142.65;90.94;50174.75;5076512;28;20584;-73
2022/09/27 08:27:13;;;;;;;2.40;2.23;;;;;;;;;;5075651;28;20181;-73
2022/09/27 08:29:48;;;;;;;2.40;2.30;;;;;;;-142.65;89.35;50164.81;5092613;28;20223;-73
2022/09/27 08:32:15;;;;;;;2.57;2.33;;;;;;;-142.65;90.01;50178.75;5075551;28;20182;-73
2022/09/27 08:34:48;;;;;;;7.07;3.07;;;;;;;-142.65;89.37;50164.81;5092665;28;20194;-73
2022/09/27 08:37:14;;;;;;;6.27;3.00;;;;;;;;;;5093993;28;20181;-73
2022/09/27 08:39:41;;;;;;;2.70;2.60;;;;;;;-142.65;89.25;50170.78;5075403;28;20236;-73
2022/09/27 08:42:44;;;;;;;4.13;3.53;;;;;;;-142.65;88.98;50170.78;5075500;28;20268;-73
2022/09/27 08:45:13;;;;;;;3.00;2.90;;;;;;;;;;5075428;28;20186;-74
2022/09/27 08:47:44;;;;;;;2.90;2.70;;;;;;;-142.65;89.33;50172.78;5093995;28;20194;-73
2022/09/27 08:50:26;;;;;;;2.80;2.73;;;;;;;-142.65;87.78;50176.75;5075525;28;20217;-73
2022/09/27 08:53:18;;;;;;;2.90;2.90;;;;;;;-142.65;87.60;50168.78;5093072;28;20201;-73
2022/09/27 08:55:49;;;;;;;4.47;4.27;;;;;;;;;;5075197;28;20754;-74
2022/09/27 08:58:51;;;;;;;3.60;3.50;;;;;;;;;;5059692;28;20185;-73
2022/09/27 09:01:22;;;;;;;3.23;3.13;;;;;;;-142.65;87.22;50164.81;5044295;28;20235;-73
2022/09/27 09:04:03;;;;;;;3.87;3.67;;;;;;;-142.65;86.58;50170.78;5076097;28;20568;-73
2022/09/27 09:06:46;;;;;;;3.00;3.00;;;;;;;-142.65;86.76;50182.72;5092415;28;20280;-74
2022/09/27 09:09:18;;;;;;;2.40;2.30;;;;;;;;;;5075173;28;20253;-73
2022/09/27 09:15:53;;;;;;;3.47;3.10;;;;;;;-142.65;87.33;50174.75;5079652;28;20199;-73
2022/09/27 09:18:43;;;;;;;3.43;2.10;;;;;;;-142.65;87.76;50172.78;5079356;28;20204;-73
2022/09/27 09:21:33;;;;;;;3.33;1.90;;;;;;;-142.65;88.37;50174.75;5096049;28;20185;-73
2022/09/27 09:24:24;;;;;;;3.17;3.10;;;;;;;-142.65;88.93;50168.78;5096065;28;20570;-73
2022/09/27 09:27:02;;;;;;;2.73;2.73;;;;;;;;;;5095991;28;20196;-74
2022/09/27 09:29:38;;;;;;;3.33;2.47;;;;;;;-142.65;90.41;50170.78;5079856;28;20230;-73
2022/09/27 09:32:27;;;;;;;2.30;2.00;;;;;;;-142.65;91.00;50170.78;5079470;28;20185;-73
2022/09/27 09:35:02;;;;;;;2.93;2.83;;;;;;;;;;5095852;28;20175;-73
2022/09/27 09:37:51;;;;;;;3.37;2.60;;;;;;;-142.65;91.63;50176.75;5096651;28;20212;-73
2022/09/27 09:40:34;;;;;;;2.37;2.37;;;;;;;-142.65;92.02;50174.75;5095707;28;20205;-74
2022/09/27 09:43:09;;;;;;;5.23;3.20;;;;;;;-142.65;91.76;50170.78;5095632;28;20186;-73
2022/09/27 09:45:41;;;;;;;2.63;2.57;;;;;;;-142.65;92.25;50170.78;5078945;28;20219;-73
2022/09/27 09:48:18;;;;;;;4.30;3.00;;;;;;;-142.65;92.41;50164.81;5078583;28;20182;-73
2022/09/27 09:50:46;;;;;;;4.10;3.17;;;;;;;;;;5096954;28;20195;-73
2022/09/27 09:53:22;;;;;;;2.87;2.87;;;;;;;-142.65;92.90;50118.97;5079364;28;20190;-73
2022/09/27 09:55:52;;;;;;;3.97;2.93;;;;;;;;;;5079430;28;20214;-73
2022/09/27 09:58:38;;;;;;;3.20;3.07;;;;;;;-142.65;92.51;50174.75;5078684;28;20582;-73
2022/09/27 10:01:17;;;;;;;3.23;3.10;;;;;;;-142.65;92.54;50168.78;5078692;28;20559;-73
2022/09/27 10:03:44;;;;;;;2.90;2.90;;;;;;;;;;5096534;28;20707;-73
2022/09/27 10:06:13;;;;;;;3.40;3.20;;;;;;;-142.65;92.66;50168.78;5079124;28;20197;-73
2022/09/27 10:08:40;;;;;;;3.60;3.40;;;;;;;-142.65;93.48;50170.78;5078259;28;20216;-73
2022/09/27 10:11:40;;;;;;;4.20;4.00;;;;;;;-142.65;93.85;50164.81;5090817;28;20279;-73
2022/09/27 10:14:28;;;;;;;8.13;3.73;;;;;;;;;;5078099;28;20196;-73
2022/09/27 10:17:08;;;;;;;3.40;3.30;;;;;;;-142.65;93.60;50170.78;5078993;28;20182;-73
2022/09/27 10:19:36;;;;;;;3.33;2.83;;;;;;;;;;5094940;28;20270;-73
2022/09/27 10:22:21;;;;;;;2.87;2.80;;;;;;;-142.65;94.37;50170.78;5078420;28;20587;-73
2022/09/27 10:25:01;;;;;;;2.87;2.77;;;;;;;-142.65;93.52;50174.75;5078037;28;20225;-73
2022/09/27 10:27:53;;;;;;;3.30;3.20;;;;;;;-142.65;93.30;50172.78;5090794;28;20246;-73
2022/09/27 10:30:30;;;;;;;3.17;3.17;;;;;;;-142.65;93.57;50174.75;5078284;28;20225;-73
2022/09/27 10:33:19;;;;;;;4.00;3.90;;;;;;;-142.65;93.70;50168.78;5078402;28;20625;-73
2022/09/27 10:35:52;;;;;;;3.70;3.70;;;;;;;-142.65;94.24;50170.78;5077738;28;20543;-73
2022/09/27 10:38:31;;;;;;;3.20;3.10;;;;;;;;;;5094808;28;20192;-73
2022/09/27 10:41:22;;;;;;;4.80;4.60;;;;;;;;;;5094864;28;20189;-73
2022/09/27 10:43:49;;;;;;;4.83;4.70;;;;;;;-142.65;95.63;50174.75;5094769;28;20198;-73
2022/09/27 10:46:34;;;;;;;4.50;4.30;;;;;;;;;;5096273;28;20190;-73
2022/09/27 10:49:37;;;;;;;5.43;4.90;;;;;;;;;;5084240;28;20211;-73
2022/09/27 10:52:20;;;;;;;5.03;4.83;;;;;;;-142.65;94.90;50174.75;5077772;28;20235;-73
2022/09/27 10:54:58;;;;;;;4.93;4.83;;;;;;;-142.65;94.72;50172.78;5077490;28;20186;-73
2022/09/27 10:57:27;;;;;;;4.40;4.00;;;;;;;-142.65;94.75;50172.78;5077418;28;20594;-73
2022/09/27 11:00:01;;;;;;;4.80;4.60;;;;;;;-142.65;94.52;50168.78;5077228;28;20632;-73
2022/09/27 11:02:35;;;;;;;4.17;4.00;;;;;;;-142.65;94.06;50174.75;5077614;28;20185;-73
2022/09/27 11:05:11;;;;;;;13.23;5.37;;;;;;;;;;5077217;28;20189;-73
2022/09/27 11:07:57;;;;;;;4.63;4.47;;;;;;;-142.65;93.63;50168.78;5078026;28;20181;-73
2022/09/27 11:10:41;;;;;;;5.37;5.17;;;;;;;-142.65;93.83;50168.78;5093912;28;20214;-73
2022/09/27 11:13:15;;;;;;;4.90;4.80;;;;;;;;;;5093861;28;20232;-73
2022/09/27 11:15:55;;;;;;;4.30;4.20;;;;;;;-142.65;94.36;50162.81;5093940;28;20618;-73
2022/09/27 11:19:00;;;;;;;5.20;4.80;;;;;;;-142.65;94.05;50172.78;5076922;28;20264;-73
2022/09/27 11:21:41;;;;;;;3.77;3.77;;;;;;;-142.65;92.51;50170.78;5093806;28;20185;-73
2022/09/27 11:24:19;;;;;;;3.07;3.00;;;;;;;-142.65;91.15;50172.78;5095566;28;20209;-73
2022/09/27 11:27:14;;;;;;;4.27;3.97;;;;;;;-142.65;90.81;50170.78;5076815;28;20196;-73
2022/09/27 11:29:49;;;;;;;3.40;3.20;;;;;;;-142.65;90.12;50162.81;5076810;28;20214;-73
2022/09/27 11:32:55;;;;;;;3.40;3.20;;;;;;;-142.65;90.22;50164.81;5075788;28;20276;-73
2022/09/27 11:35:31;;;;;;;2.90;2.80;;;;;;;;;;5076662;28;20606;-73
2022/09/27 11:38:20;;;;;;;4.03;3.23;;;;;;;;;;5076958;28;20594;-73
2022/09/27 11:41:49;;;;;;;3.00;2.93;;;;;;;-142.65;87.97;50172.78;5076451;28;20174;-73
2022/09/27 11:44:42;;;;;;;3.60;2.90;;;;;;;-142.65;86.14;50174.75;5048388;28;20281;-73
2022/09/27 11:47:30;;;;;;;2.77;2.40;;;;;;;-142.65;86.73;50118.97;5076587;28;20194;-73
2022/09/27 11:50:21;;;;;;;2.80;2.80;;;;;;;-142.65;86.88;50172.78;5076173;28;20220;-73
2022/09/27 11:53:15;;;;;;;2.50;2.50;;;;;;;-142.65;86.53;50174.75;5093251;28;20605;-73
2022/09/27 11:56:01;;;;;;;2.33;2.33;;;;;;;-142.65;85.96;50170.78;5076196;28;20735;-73
2022/09/27 11:59:01;;;;;;;2.80;2.80;;;;;;;-142.65;86.98;50164.81;5076918;28;20214;-72
2022/09/27 12:01:59;;;;;;;2.67;2.67;;;;;;;-142.65;86.32;50170.78;5094555;28;20643;-73
2022/09/27 12:05:11;;;;;;;2.63;2.63;;;;;;;-142.65;86.62;50170.78;5092976;28;20282;-73
2022/09/27 12:08:06;;;;;;;3.00;3.00;;;;;;;-142.65;86.13;50164.81;5015604;28;20682;-73
2022/09/27 12:10:34;;;;;;;3.07;2.97;;;;;;;;;;5092792;28;20701;-73
2022/09/27 12:13:02;;;;;;;3.40;3.40;;;;;;;-142.65;87.14;50162.81;5075894;28;20225;-73
2022/09/27 12:15:34;;;;;;;3.73;3.53;;;;;;;-142.65;87.40;50176.75;5093041;28;20715;-72
2022/09/27 12:18:19;;;;;;;3.70;3.60;;;;;;;;;;5093042;28;20553;-73
2022/09/27 12:20:45;;;;;;;3.53;3.53;;;;;;;;;;5075782;28;20268;-73
2022/09/27 12:23:19;;;;;;;3.17;3.17;;;;;;;-142.65;89.91;50170.78;5076006;28;20209;-72
2022/09/27 12:26:02;;;;;;;4.30;4.20;;;;;;;;;;5093423;28;20197;-73
2022/09/27 12:28:38;;;;;;;3.93;3.63;;;;;;;-142.65;89.46;50170.78;5092493;28;20220;-72
2022/09/27 12:31:14;;;;;;;3.43;3.33;;;;;;;-142.65;87.42;50174.75;5075734;28;20252;-73
2022/09/27 12:34:01;;;;;;;3.53;3.23;;;;;;;-142.65;88.94;50168.78;5094305;28;20616;-72
2022/09/27 12:36:34;;;;;;;4.00;3.80;;;;;;;-142.65;88.79;50170.78;5094233;28;20256;-72
2022/09/27 12:39:16;;;;;;;2.77;2.67;;;;;;;-142.65;87.38;50178.75;5075669;28;20223;-72
2022/09/27 12:41:49;;;;;;;3.60;3.27;;;;;;;;;;5075524;28;20234;-72
2022/09/27 12:44:26;;;;;;;3.17;3.17;;;;;;;;;;5092396;28;20217;-73
2022/09/27 12:47:04;;;;;;;3.57;3.27;;;;;;;-142.65;89.47;50174.75;5075415;28;20286;-73
2022/09/27 12:49:42;;;;;;;3.70;3.20;;;;;;;;;;5075937;28;20209;-72
2022/09/27 12:52:21;;;;;;;2.93;2.67;;;;;;;-142.65;88.74;50170.78;5075340;28;20208;-72